RJNK(METAR)
05/26 18:00
METAR RJNK 260900Z 24004KT 9999 -RA FEW020 SCT030 BKN080 19/16 Q1008
RMK 1CU020 3CU030 7AC080 A2978=
戻る
トップページへ戻る
IMOC Co,.Ltd.